sensor_id;sensor_type;location;lat;lon;timestamp;temperature;humidity
71942;DHT22;59997;53.300;-6.260;2023-11-18T00:00:25;11.11;91.63
71942;DHT22;59997;53.300;-6.260;2023-11-18T00:02:51;11.12;91.66
71942;DHT22;59997;53.300;-6.260;2023-11-18T00:05:17;11.12;91.67
71942;DHT22;59997;53.300;-6.260;2023-11-18T00:07:43;11.11;91.74
71942;DHT22;59997;53.300;-6.260;2023-11-18T00:10:09;11.15;91.78
71942;DHT22;59997;53.300;-6.260;2023-11-18T00:12:35;11.12;91.82
71942;DHT22;59997;53.300;-6.260;2023-11-18T00:15:04;11.18;91.80
71942;DHT22;59997;53.300;-6.260;2023-11-18T00:17:32;11.21;91.88
71942;DHT22;59997;53.300;-6.260;2023-11-18T00:19:58;11.23;91.85
71942;DHT22;59997;53.300;-6.260;2023-11-18T00:22:24;11.23;91.85
71942;DHT22;59997;53.300;-6.260;2023-11-18T00:24:49;11.23;91.85
71942;DHT22;59997;53.300;-6.260;2023-11-18T00:27:15;11.21;91.90
71942;DHT22;59997;53.300;-6.260;2023-11-18T00:29:41;11.21;92.03
71942;DHT22;59997;53.300;-6.260;2023-11-18T00:32:07;11.26;92.08
71942;DHT22;59997;53.300;-6.260;2023-11-18T00:34:33;11.28;92.01
71942;DHT22;59997;53.300;-6.260;2023-11-18T00:36:59;11.30;92.04
71942;DHT22;59997;53.300;-6.260;2023-11-18T00:39:26;11.30;92.05
71942;DHT22;59997;53.300;-6.260;2023-11-18T00:41:52;11.33;92.09
71942;DHT22;59997;53.300;-6.260;2023-11-18T00:44:17;11.30;92.14
71942;DHT22;59997;53.300;-6.260;2023-11-18T00:46:43;11.28;92.26
71942;DHT22;59997;53.300;-6.260;2023-11-18T00:49:09;11.32;92.29
71942;DHT22;59997;53.300;-6.260;2023-11-18T00:51:36;11.29;92.30
71942;DHT22;59997;53.300;-6.260;2023-11-18T00:54:02;11.23;92.32
71942;DHT22;59997;53.300;-6.260;2023-11-18T00:56:30;11.30;92.45
71942;DHT22;59997;53.300;-6.260;2023-11-18T00:58:56;11.35;92.37
71942;DHT22;59997;53.300;-6.260;2023-11-18T01:01:21;11.40;92.41
71942;DHT22;59997;53.300;-6.260;2023-11-18T01:03:47;11.42;92.39
71942;DHT22;59997;53.300;-6.260;2023-11-18T01:06:13;11.40;92.41
71942;DHT22;59997;53.300;-6.260;2023-11-18T01:08:43;11.43;92.41
71942;DHT22;59997;53.300;-6.260;2023-11-18T01:11:09;11.46;92.41
71942;DHT22;59997;53.300;-6.260;2023-11-18T01:13:35;11.46;92.47
71942;DHT22;59997;53.300;-6.260;2023-11-18T01:16:00;11.56;92.41
71942;DHT22;59997;53.300;-6.260;2023-11-18T01:18:27;11.60;92.44
71942;DHT22;59997;53.300;-6.260;2023-11-18T01:20:53;11.67;92.39
71942;DHT22;59997;53.300;-6.260;2023-11-18T01:23:18;11.74;92.37
71942;DHT22;59997;53.300;-6.260;2023-11-18T01:25:44;11.78;92.25
71942;DHT22;59997;53.300;-6.260;2023-11-18T01:28:09;11.74;92.26
71942;DHT22;59997;53.300;-6.260;2023-11-18T01:30:35;11.67;92.33
71942;DHT22;59997;53.300;-6.260;2023-11-18T01:33:01;11.69;92.42
71942;DHT22;59997;53.300;-6.260;2023-11-18T01:35:27;11.74;92.43
71942;DHT22;59997;53.300;-6.260;2023-11-18T01:37:53;11.82;92.52
71942;DHT22;59997;53.300;-6.260;2023-11-18T01:40:20;11.81;92.46
71942;DHT22;59997;53.300;-6.260;2023-11-18T01:42:46;11.80;92.52
71942;DHT22;59997;53.300;-6.260;2023-11-18T01:45:12;11.71;92.57
71942;DHT22;59997;53.300;-6.260;2023-11-18T01:47:40;11.84;92.55
71942;DHT22;59997;53.300;-6.260;2023-11-18T01:50:09;11.82;92.54
71942;DHT22;59997;53.300;-6.260;2023-11-18T01:52:36;11.81;92.65
71942;DHT22;59997;53.300;-6.260;2023-11-18T01:55:03;11.89;92.72
71942;DHT22;59997;53.300;-6.260;2023-11-18T01:57:35;12.12;92.86
71942;DHT22;59997;53.300;-6.260;2023-11-18T02:00:02;12.23;92.80
71942;DHT22;59997;53.300;-6.260;2023-11-18T02:02:32;12.26;92.69
71942;DHT22;59997;53.300;-6.260;2023-11-18T02:04:59;12.34;92.73
71942;DHT22;59997;53.300;-6.260;2023-11-18T02:07:27;12.74;92.88
71942;DHT22;59997;53.300;-6.260;2023-11-18T02:09:54;13.09;92.47
71942;DHT22;59997;53.300;-6.260;2023-11-18T02:12:31;13.23;92.01
71942;DHT22;59997;53.300;-6.260;2023-11-18T02:15:00;13.36;91.70
71942;DHT22;59997;53.300;-6.260;2023-11-18T02:17:29;13.37;91.52
71942;DHT22;59997;53.300;-6.260;2023-11-18T02:19:58;13.37;91.42
71942;DHT22;59997;53.300;-6.260;2023-11-18T02:22:25;13.41;91.37
71942;DHT22;59997;53.300;-6.260;2023-11-18T02:24:51;13.43;91.43
71942;DHT22;59997;53.300;-6.260;2023-11-18T02:27:16;13.40;91.45
71942;DHT22;59997;53.300;-6.260;2023-11-18T02:29:45;13.43;91.45
71942;DHT22;59997;53.300;-6.260;2023-11-18T02:32:37;13.46;91.40
71942;DHT22;59997;53.300;-6.260;2023-11-18T02:35:15;13.50;91.40
71942;DHT22;59997;53.300;-6.260;2023-11-18T02:37:45;13.50;91.33
71942;DHT22;59997;53.300;-6.260;2023-11-18T02:40:19;13.47;91.40
71942;DHT22;59997;53.300;-6.260;2023-11-18T02:42:45;13.48;91.36
71942;DHT22;59997;53.300;-6.260;2023-11-18T02:45:13;13.51;91.42
71942;DHT22;59997;53.300;-6.260;2023-11-18T02:47:44;13.61;91.31
71942;DHT22;59997;53.300;-6.260;2023-11-18T02:50:09;13.64;91.21
71942;DHT22;59997;53.300;-6.260;2023-11-18T02:52:39;13.69;91.13
71942;DHT22;59997;53.300;-6.260;2023-11-18T02:55:08;13.68;91.10
71942;DHT22;59997;53.300;-6.260;2023-11-18T02:57:37;13.74;91.17
71942;DHT22;59997;53.300;-6.260;2023-11-18T03:00:04;13.68;91.26
71942;DHT22;59997;53.300;-6.260;2023-11-18T03:02:30;13.58;91.29
71942;DHT22;59997;53.300;-6.260;2023-11-18T03:04:59;13.50;91.26
71942;DHT22;59997;53.300;-6.260;2023-11-18T03:07:25;13.53;91.41
71942;DHT22;59997;53.300;-6.260;2023-11-18T03:09:52;13.61;91.40
71942;DHT22;59997;53.300;-6.260;2023-11-18T03:12:22;13.75;91.19
71942;DHT22;59997;53.300;-6.260;2023-11-18T03:14:48;13.83;91.09
71942;DHT22;59997;53.300;-6.260;2023-11-18T03:17:13;13.85;91.09
71942;DHT22;59997;53.300;-6.260;2023-11-18T03:19:39;13.83;91.05
71942;DHT22;59997;53.300;-6.260;2023-11-18T03:22:04;13.90;91.08
71942;DHT22;59997;53.300;-6.260;2023-11-18T03:24:30;13.85;91.18
71942;DHT22;59997;53.300;-6.260;2023-11-18T03:26:56;13.75;91.18
71942;DHT22;59997;53.300;-6.260;2023-11-18T03:29:21;13.61;91.25
71942;DHT22;59997;53.300;-6.260;2023-11-18T03:31:48;13.50;91.28
71942;DHT22;59997;53.300;-6.260;2023-11-18T03:34:15;13.41;91.30
71942;DHT22;59997;53.300;-6.260;2023-11-18T03:36:41;13.30;91.34
71942;DHT22;59997;53.300;-6.260;2023-11-18T03:39:06;13.30;91.46
71942;DHT22;59997;53.300;-6.260;2023-11-18T03:41:32;13.40;91.49
71942;DHT22;59997;53.300;-6.260;2023-11-18T03:43:57;13.44;91.40
71942;DHT22;59997;53.300;-6.260;2023-11-18T03:46:23;13.54;91.30
71942;DHT22;59997;53.300;-6.260;2023-11-18T03:48:48;13.62;91.22
71942;DHT22;59997;53.300;-6.260;2023-11-18T03:51:14;13.61;91.10
71942;DHT22;59997;53.300;-6.260;2023-11-18T03:53:42;13.65;91.10
71942;DHT22;59997;53.300;-6.260;2023-11-18T03:56:08;13.64;91.10
71942;DHT22;59997;53.300;-6.260;2023-11-18T03:58:33;13.64;91.14
71942;DHT22;59997;53.300;-6.260;2023-11-18T04:01:00;13.64;91.11
71942;DHT22;59997;53.300;-6.260;2023-11-18T04:03:27;13.62;91.06
71942;DHT22;59997;53.300;-6.260;2023-11-18T04:05:52;13.54;91.13
71942;DHT22;59997;53.300;-6.260;2023-11-18T04:08:18;13.55;91.17
71942;DHT22;59997;53.300;-6.260;2023-11-18T04:10:43;13.54;91.17
71942;DHT22;59997;53.300;-6.260;2023-11-18T04:13:09;13.61;91.16
71942;DHT22;59997;53.300;-6.260;2023-11-18T04:15:34;13.60;91.14
71942;DHT22;59997;53.300;-6.260;2023-11-18T04:18:01;13.64;91.13
71942;DHT22;59997;53.300;-6.260;2023-11-18T04:20:26;13.58;91.20
71942;DHT22;59997;53.300;-6.260;2023-11-18T04:22:52;13.64;91.19
71942;DHT22;59997;53.300;-6.260;2023-11-18T04:25:19;13.51;91.27
71942;DHT22;59997;53.300;-6.260;2023-11-18T04:27:46;13.55;91.27
71942;DHT22;59997;53.300;-6.260;2023-11-18T04:30:12;13.61;91.29
71942;DHT22;59997;53.300;-6.260;2023-11-18T04:32:38;13.69;91.19
71942;DHT22;59997;53.300;-6.260;2023-11-18T04:35:04;13.74;91.23
71942;DHT22;59997;53.300;-6.260;2023-11-18T04:37:38;13.79;91.22
71942;DHT22;59997;53.300;-6.260;2023-11-18T04:40:06;13.71;91.32
71942;DHT22;59997;53.300;-6.260;2023-11-18T04:42:34;13.68;91.34
71942;DHT22;59997;53.300;-6.260;2023-11-18T04:45:00;13.67;91.34
71942;DHT22;59997;53.300;-6.260;2023-11-18T04:47:25;13.62;91.36
71942;DHT22;59997;53.300;-6.260;2023-11-18T04:49:52;13.69;91.23
71942;DHT22;59997;53.300;-6.260;2023-11-18T04:52:17;13.78;91.23
71942;DHT22;59997;53.300;-6.260;2023-11-18T04:54:43;13.87;91.25
71942;DHT22;59997;53.300;-6.260;2023-11-18T04:57:09;13.86;91.31
71942;DHT22;59997;53.300;-6.260;2023-11-18T04:59:35;13.86;91.35
71942;DHT22;59997;53.300;-6.260;2023-11-18T05:02:01;13.85;91.43
71942;DHT22;59997;53.300;-6.260;2023-11-18T05:04:27;13.87;91.31
71942;DHT22;59997;53.300;-6.260;2023-11-18T05:06:53;13.81;91.38
71942;DHT22;59997;53.300;-6.260;2023-11-18T05:09:19;13.74;91.48
71942;DHT22;59997;53.300;-6.260;2023-11-18T05:11:44;13.75;91.47
71942;DHT22;59997;53.300;-6.260;2023-11-18T05:14:10;13.71;91.38
71942;DHT22;59997;53.300;-6.260;2023-11-18T05:16:36;13.67;91.47
71942;DHT22;59997;53.300;-6.260;2023-11-18T05:19:02;13.67;91.47
71942;DHT22;59997;53.300;-6.260;2023-11-18T05:21:27;13.64;91.43
71942;DHT22;59997;53.300;-6.260;2023-11-18T05:23:53;13.67;91.18
71942;DHT22;59997;53.300;-6.260;2023-11-18T05:26:18;13.71;91.09
71942;DHT22;59997;53.300;-6.260;2023-11-18T05:28:44;13.67;91.14
71942;DHT22;59997;53.300;-6.260;2023-11-18T05:31:10;13.61;91.08
71942;DHT22;59997;53.300;-6.260;2023-11-18T05:33:36;13.67;90.91
71942;DHT22;59997;53.300;-6.260;2023-11-18T05:36:02;13.69;90.66
71942;DHT22;59997;53.300;-6.260;2023-11-18T05:38:30;13.58;90.73
71942;DHT22;59997;53.300;-6.260;2023-11-18T05:41:00;13.51;90.82
71942;DHT22;59997;53.300;-6.260;2023-11-18T05:43:32;13.50;90.62
71942;DHT22;59997;53.300;-6.260;2023-11-18T05:46:16;13.43;90.73
71942;DHT22;59997;53.300;-6.260;2023-11-18T05:48:50;13.28;90.87
71942;DHT22;59997;53.300;-6.260;2023-11-18T05:51:23;13.24;91.05
71942;DHT22;59997;53.300;-6.260;2023-11-18T05:53:49;13.15;91.16
71942;DHT22;59997;53.300;-6.260;2023-11-18T05:56:15;13.13;91.20
71942;DHT22;59997;53.300;-6.260;2023-11-18T05:58:44;13.06;91.25
71942;DHT22;59997;53.300;-6.260;2023-11-18T06:01:09;13.15;91.04
71942;DHT22;59997;53.300;-6.260;2023-11-18T06:03:38;13.15;91.00
71942;DHT22;59997;53.300;-6.260;2023-11-18T06:06:11;13.16;90.95
71942;DHT22;59997;53.300;-6.260;2023-11-18T06:08:38;13.22;90.75
71942;DHT22;59997;53.300;-6.260;2023-11-18T06:11:07;13.24;90.61
71942;DHT22;59997;53.300;-6.260;2023-11-18T06:13:46;13.27;90.52
71942;DHT22;59997;53.300;-6.260;2023-11-18T06:16:18;13.33;90.34
71942;DHT22;59997;53.300;-6.260;2023-11-18T06:18:49;13.20;90.61
71942;DHT22;59997;53.300;-6.260;2023-11-18T06:21:16;13.09;90.92
71942;DHT22;59997;53.300;-6.260;2023-11-18T06:23:44;13.05;90.97
71942;DHT22;59997;53.300;-6.260;2023-11-18T06:26:11;13.09;90.93
71942;DHT22;59997;53.300;-6.260;2023-11-18T06:28:40;13.12;90.80
71942;DHT22;59997;53.300;-6.260;2023-11-18T06:31:06;13.24;90.72
71942;DHT22;59997;53.300;-6.260;2023-11-18T06:33:41;13.26;90.64
71942;DHT22;59997;53.300;-6.260;2023-11-18T06:38:52;13.44;90.30
71942;DHT22;59997;53.300;-6.260;2023-11-18T06:41:21;13.40;90.30
71942;DHT22;59997;53.300;-6.260;2023-11-18T06:43:49;13.41;90.42
71942;DHT22;59997;53.300;-6.260;2023-11-18T06:46:23;13.48;90.24
71942;DHT22;59997;53.300;-6.260;2023-11-18T06:48:53;13.65;89.74
71942;DHT22;59997;53.300;-6.260;2023-11-18T06:51:23;13.61;89.98
71942;DHT22;59997;53.300;-6.260;2023-11-18T06:53:56;13.65;89.89
71942;DHT22;59997;53.300;-6.260;2023-11-18T06:56:26;13.71;89.65
71942;DHT22;59997;53.300;-6.260;2023-11-18T06:58:52;13.78;89.54
71942;DHT22;59997;53.300;-6.260;2023-11-18T07:01:18;13.87;89.01
71942;DHT22;59997;53.300;-6.260;2023-11-18T07:03:45;13.96;88.96
71942;DHT22;59997;53.300;-6.260;2023-11-18T07:06:11;13.98;88.87
71942;DHT22;59997;53.300;-6.260;2023-11-18T07:08:39;14.02;88.77
71942;DHT22;59997;53.300;-6.260;2023-11-18T07:11:05;14.01;89.13
71942;DHT22;59997;53.300;-6.260;2023-11-18T07:13:32;13.93;89.46
71942;DHT22;59997;53.300;-6.260;2023-11-18T07:16:00;13.87;89.64
71942;DHT22;59997;53.300;-6.260;2023-11-18T07:18:28;13.77;89.87
71942;DHT22;59997;53.300;-6.260;2023-11-18T07:20:56;13.61;89.99
71942;DHT22;59997;53.300;-6.260;2023-11-18T07:23:21;13.39;90.37
71942;DHT22;59997;53.300;-6.260;2023-11-18T07:25:48;13.15;90.76
71942;DHT22;59997;53.300;-6.260;2023-11-18T07:28:13;13.15;90.69
71942;DHT22;59997;53.300;-6.260;2023-11-18T07:30:41;13.17;90.63
71942;DHT22;59997;53.300;-6.260;2023-11-18T07:33:08;13.24;90.40
71942;DHT22;59997;53.300;-6.260;2023-11-18T07:35:34;13.28;90.35
71942;DHT22;59997;53.300;-6.260;2023-11-18T07:38:02;13.23;90.37
71942;DHT22;59997;53.300;-6.260;2023-11-18T07:40:27;13.17;90.52
71942;DHT22;59997;53.300;-6.260;2023-11-18T07:42:56;13.22;90.51
71942;DHT22;59997;53.300;-6.260;2023-11-18T07:45:23;13.43;90.03
71942;DHT22;59997;53.300;-6.260;2023-11-18T07:47:50;13.43;90.11
71942;DHT22;59997;53.300;-6.260;2023-11-18T07:50:19;13.44;89.97
71942;DHT22;59997;53.300;-6.260;2023-11-18T07:52:52;13.39;90.15
71942;DHT22;59997;53.300;-6.260;2023-11-18T07:55:17;13.36;90.23
71942;DHT22;59997;53.300;-6.260;2023-11-18T07:57:43;13.30;90.20
71942;DHT22;59997;53.300;-6.260;2023-11-18T08:00:09;13.09;90.54
71942;DHT22;59997;53.300;-6.260;2023-11-18T08:02:36;12.98;90.85
71942;DHT22;59997;53.300;-6.260;2023-11-18T08:05:03;12.89;91.01
71942;DHT22;59997;53.300;-6.260;2023-11-18T08:07:28;12.88;91.02
71942;DHT22;59997;53.300;-6.260;2023-11-18T08:09:54;12.77;91.13
71942;DHT22;59997;53.300;-6.260;2023-11-18T08:12:20;12.77;91.31
71942;DHT22;59997;53.300;-6.260;2023-11-18T08:14:45;12.68;91.36
71942;DHT22;59997;53.300;-6.260;2023-11-18T08:17:12;12.81;91.18
71942;DHT22;59997;53.300;-6.260;2023-11-18T08:19:38;12.74;91.30
71942;DHT22;59997;53.300;-6.260;2023-11-18T08:22:04;12.77;91.26
71942;DHT22;59997;53.300;-6.260;2023-11-18T08:24:31;12.61;91.39
71942;DHT22;59997;53.300;-6.260;2023-11-18T08:26:58;12.67;91.46
71942;DHT22;59997;53.300;-6.260;2023-11-18T08:29:24;12.69;91.40
71942;DHT22;59997;53.300;-6.260;2023-11-18T08:31:53;12.67;91.38
71942;DHT22;59997;53.300;-6.260;2023-11-18T08:34:18;12.65;91.40
71942;DHT22;59997;53.300;-6.260;2023-11-18T08:36:44;12.77;91.37
71942;DHT22;59997;53.300;-6.260;2023-11-18T08:39:10;13.02;90.94
71942;DHT22;59997;53.300;-6.260;2023-11-18T08:41:36;13.24;90.31
71942;DHT22;59997;53.300;-6.260;2023-11-18T08:44:01;13.43;89.73
71942;DHT22;59997;53.300;-6.260;2023-11-18T08:46:27;13.65;89.23
71942;DHT22;59997;53.300;-6.260;2023-11-18T08:48:53;13.67;89.12
71942;DHT22;59997;53.300;-6.260;2023-11-18T08:51:21;13.74;88.80
71942;DHT22;59997;53.300;-6.260;2023-11-18T08:53:46;13.81;88.35
71942;DHT22;59997;53.300;-6.260;2023-11-18T08:56:13;13.87;88.54
71942;DHT22;59997;53.300;-6.260;2023-11-18T08:58:44;13.83;88.47
71942;DHT22;59997;53.300;-6.260;2023-11-18T09:01:10;13.95;88.05
71942;DHT22;59997;53.300;-6.260;2023-11-18T09:03:42;14.01;88.08
71942;DHT22;59997;53.300;-6.260;2023-11-18T09:06:09;14.01;87.96
71942;DHT22;59997;53.300;-6.260;2023-11-18T09:08:51;14.14;87.61
71942;DHT22;59997;53.300;-6.260;2023-11-18T09:11:22;14.31;86.97
71942;DHT22;59997;53.300;-6.260;2023-11-18T09:13:48;14.30;87.70
71942;DHT22;59997;53.300;-6.260;2023-11-18T09:16:15;14.38;87.27
71942;DHT22;59997;53.300;-6.260;2023-11-18T09:18:44;14.42;87.58
71942;DHT22;59997;53.300;-6.260;2023-11-18T09:21:12;14.49;86.87
71942;DHT22;59997;53.300;-6.260;2023-11-18T09:23:43;14.55;86.86
71942;DHT22;59997;53.300;-6.260;2023-11-18T09:26:10;14.51;86.95
71942;DHT22;59997;53.300;-6.260;2023-11-18T09:28:36;14.48;87.11
71942;DHT22;59997;53.300;-6.260;2023-11-18T09:31:02;14.42;87.42
71942;DHT22;59997;53.300;-6.260;2023-11-18T09:33:30;14.44;87.09
71942;DHT22;59997;53.300;-6.260;2023-11-18T09:36:01;14.45;87.19
71942;DHT22;59997;53.300;-6.260;2023-11-18T09:38:32;14.49;87.08
71942;DHT22;59997;53.300;-6.260;2023-11-18T09:41:02;14.49;86.90
71942;DHT22;59997;53.300;-6.260;2023-11-18T09:43:31;14.48;87.04
71942;DHT22;59997;53.300;-6.260;2023-11-18T09:46:16;14.48;86.73
71942;DHT22;59997;53.300;-6.260;2023-11-18T09:48:46;14.51;86.80
71942;DHT22;59997;53.300;-6.260;2023-11-18T09:51:38;14.54;86.67
71942;DHT22;59997;53.300;-6.260;2023-11-18T09:57:06;14.49;86.86
71942;DHT22;59997;53.300;-6.260;2023-11-18T10:02:10;14.65;86.18
71942;DHT22;59997;53.300;-6.260;2023-11-18T10:04:37;14.69;85.93
71942;DHT22;59997;53.300;-6.260;2023-11-18T10:07:05;14.79;85.13
71942;DHT22;59997;53.300;-6.260;2023-11-18T10:09:32;14.80;85.39
71942;DHT22;59997;53.300;-6.260;2023-11-18T10:12:04;14.86;85.03
71942;DHT22;59997;53.300;-6.260;2023-11-18T10:14:34;14.88;85.37
71942;DHT22;59997;53.300;-6.260;2023-11-18T10:17:03;14.90;85.32
71942;DHT22;59997;53.300;-6.260;2023-11-18T10:19:58;14.97;85.42
71942;DHT22;59997;53.300;-6.260;2023-11-18T10:22:38;15.02;84.20
71942;DHT22;59997;53.300;-6.260;2023-11-18T10:25:06;15.11;84.56
71942;DHT22;59997;53.300;-6.260;2023-11-18T10:27:31;15.20;84.53
71942;DHT22;59997;53.300;-6.260;2023-11-18T10:30:06;15.14;83.94
71942;DHT22;59997;53.300;-6.260;2023-11-18T10:32:56;15.19;84.41
71942;DHT22;59997;53.300;-6.260;2023-11-18T10:35:31;15.23;84.82
71942;DHT22;59997;53.300;-6.260;2023-11-18T10:37:57;15.24;84.46
71942;DHT22;59997;53.300;-6.260;2023-11-18T10:40:24;15.26;84.35
71942;DHT22;59997;53.300;-6.260;2023-11-18T10:42:49;15.28;84.27
71942;DHT22;59997;53.300;-6.260;2023-11-18T10:45:26;15.38;83.83
71942;DHT22;59997;53.300;-6.260;2023-11-18T10:47:54;15.42;84.13
71942;DHT22;59997;53.300;-6.260;2023-11-18T10:50:21;15.49;84.33
71942;DHT22;59997;53.300;-6.260;2023-11-18T10:52:48;15.49;84.14
71942;DHT22;59997;53.300;-6.260;2023-11-18T10:55:14;15.40;84.49
71942;DHT22;59997;53.300;-6.260;2023-11-18T10:57:45;15.40;83.95
71942;DHT22;59997;53.300;-6.260;2023-11-18T11:00:11;15.48;84.42
71942;DHT22;59997;53.300;-6.260;2023-11-18T11:02:44;15.52;83.84
71942;DHT22;59997;53.300;-6.260;2023-11-18T11:05:12;15.52;83.90
71942;DHT22;59997;53.300;-6.260;2023-11-18T11:07:53;15.55;84.23
71942;DHT22;59997;53.300;-6.260;2023-11-18T11:10:18;15.49;84.47
71942;DHT22;59997;53.300;-6.260;2023-11-18T11:12:54;15.32;84.73
71942;DHT22;59997;53.300;-6.260;2023-11-18T11:15:30;15.26;85.74
71942;DHT22;59997;53.300;-6.260;2023-11-18T11:18:04;15.19;85.78
71942;DHT22;59997;53.300;-6.260;2023-11-18T11:20:37;15.32;86.25
71942;DHT22;59997;53.300;-6.260;2023-11-18T11:28:52;15.55;84.62
71942;DHT22;59997;53.300;-6.260;2023-11-18T11:31:29;15.54;84.10
71942;DHT22;59997;53.300;-6.260;2023-11-18T11:34:06;15.45;84.83
71942;DHT22;59997;53.300;-6.260;2023-11-18T11:36:44;15.42;84.59
71942;DHT22;59997;53.300;-6.260;2023-11-18T11:39:12;15.45;84.90
71942;DHT22;59997;53.300;-6.260;2023-11-18T11:41:45;15.51;84.81
71942;DHT22;59997;53.300;-6.260;2023-11-18T11:44:16;15.47;84.23
71942;DHT22;59997;53.300;-6.260;2023-11-18T11:46:45;15.37;84.38
71942;DHT22;59997;53.300;-6.260;2023-11-18T11:49:19;15.26;84.70
71942;DHT22;59997;53.300;-6.260;2023-11-18T11:51:59;15.16;85.62
71942;DHT22;59997;53.300;-6.260;2023-11-18T11:57:13;14.85;88.29
71942;DHT22;59997;53.300;-6.260;2023-11-18T12:02:13;14.71;87.51
71942;DHT22;59997;53.300;-6.260;2023-11-18T12:04:44;14.80;86.71
71942;DHT22;59997;53.300;-6.260;2023-11-18T12:07:10;14.92;85.82
71942;DHT22;59997;53.300;-6.260;2023-11-18T12:09:40;14.92;84.11
71942;DHT22;59997;53.300;-6.260;2023-11-18T12:12:21;14.90;83.88
71942;DHT22;59997;53.300;-6.260;2023-11-18T12:14:57;14.97;84.12
71942;DHT22;59997;53.300;-6.260;2023-11-18T12:17:26;15.06;84.08
71942;DHT22;59997;53.300;-6.260;2023-11-18T12:19:57;15.08;83.22
71942;DHT22;59997;53.300;-6.260;2023-11-18T12:23:03;15.03;83.41
71942;DHT22;59997;53.300;-6.260;2023-11-18T12:25:39;15.02;83.64
71942;DHT22;59997;53.300;-6.260;2023-11-18T12:28:09;14.97;83.90
71942;DHT22;59997;53.300;-6.260;2023-11-18T12:33:04;15.04;84.01
71942;DHT22;59997;53.300;-6.260;2023-11-18T12:38:30;14.76;82.80
71942;DHT22;59997;53.300;-6.260;2023-11-18T12:44:30;14.80;83.49
71942;DHT22;59997;53.300;-6.260;2023-11-18T12:49:46;14.61;84.09
71942;DHT22;59997;53.300;-6.260;2023-11-18T12:52:20;14.54;84.30
71942;DHT22;59997;53.300;-6.260;2023-11-18T12:54:47;14.48;84.64
71942;DHT22;59997;53.300;-6.260;2023-11-18T12:57:20;14.44;84.89
71942;DHT22;59997;53.300;-6.260;2023-11-18T12:59:48;14.47;85.12
71942;DHT22;59997;53.300;-6.260;2023-11-18T13:02:15;14.48;85.27
71942;DHT22;59997;53.300;-6.260;2023-11-18T13:04:46;14.48;85.37
71942;DHT22;59997;53.300;-6.260;2023-11-18T13:07:17;14.51;85.18
71942;DHT22;59997;53.300;-6.260;2023-11-18T13:09:43;14.64;84.75
71942;DHT22;59997;53.300;-6.260;2023-11-18T13:12:12;14.69;84.89
71942;DHT22;59997;53.300;-6.260;2023-11-18T13:14:41;14.54;84.80
71942;DHT22;59997;53.300;-6.260;2023-11-18T13:17:11;14.48;84.50
71942;DHT22;59997;53.300;-6.260;2023-11-18T13:19:41;14.42;84.79
71942;DHT22;59997;53.300;-6.260;2023-11-18T13:22:08;14.30;85.54
71942;DHT22;59997;53.300;-6.260;2023-11-18T13:24:38;14.27;84.48
71942;DHT22;59997;53.300;-6.260;2023-11-18T13:27:13;14.33;84.85
71942;DHT22;59997;53.300;-6.260;2023-11-18T13:29:44;14.36;83.85
71942;DHT22;59997;53.300;-6.260;2023-11-18T13:32:11;14.33;83.94
71942;DHT22;59997;53.300;-6.260;2023-11-18T13:34:39;14.30;83.54
71942;DHT22;59997;53.300;-6.260;2023-11-18T13:37:10;14.26;83.72
71942;DHT22;59997;53.300;-6.260;2023-11-18T13:39:42;14.34;83.21
71942;DHT22;59997;53.300;-6.260;2023-11-18T13:44:45;14.61;82.88
71942;DHT22;59997;53.300;-6.260;2023-11-18T13:47:11;14.57;82.74
71942;DHT22;59997;53.300;-6.260;2023-11-18T13:49:40;14.54;83.21
71942;DHT22;59997;53.300;-6.260;2023-11-18T13:52:06;14.54;84.23
71942;DHT22;59997;53.300;-6.260;2023-11-18T13:54:37;14.51;83.62
71942;DHT22;59997;53.300;-6.260;2023-11-18T13:57:04;14.47;83.31
71942;DHT22;59997;53.300;-6.260;2023-11-18T13:59:31;14.40;84.22
71942;DHT22;59997;53.300;-6.260;2023-11-18T14:01:58;14.37;84.59
71942;DHT22;59997;53.300;-6.260;2023-11-18T14:04:30;14.24;84.49
71942;DHT22;59997;53.300;-6.260;2023-11-18T14:07:00;14.26;84.37
71942;DHT22;59997;53.300;-6.260;2023-11-18T14:09:27;14.37;83.67
71942;DHT22;59997;53.300;-6.260;2023-11-18T14:11:55;14.38;83.98
71942;DHT22;59997;53.300;-6.260;2023-11-18T14:14:24;14.34;84.14
71942;DHT22;59997;53.300;-6.260;2023-11-18T14:16:52;14.28;84.18
71942;DHT22;59997;53.300;-6.260;2023-11-18T14:19:30;14.26;85.64
71942;DHT22;59997;53.300;-6.260;2023-11-18T14:21:55;14.20;84.70
71942;DHT22;59997;53.300;-6.260;2023-11-18T14:24:21;14.33;83.68
71942;DHT22;59997;53.300;-6.260;2023-11-18T14:26:54;14.49;83.06
71942;DHT22;59997;53.300;-6.260;2023-11-18T14:29:20;14.68;83.47
71942;DHT22;59997;53.300;-6.260;2023-11-18T14:31:46;14.97;82.62
71942;DHT22;59997;53.300;-6.260;2023-11-18T14:34:11;15.13;82.32
71942;DHT22;59997;53.300;-6.260;2023-11-18T14:36:37;15.26;82.01
71942;DHT22;59997;53.300;-6.260;2023-11-18T14:39:03;15.32;81.75
71942;DHT22;59997;53.300;-6.260;2023-11-18T14:41:30;15.21;81.97
71942;DHT22;59997;53.300;-6.260;2023-11-18T14:43:56;15.24;81.49
71942;DHT22;59997;53.300;-6.260;2023-11-18T14:46:23;15.26;81.70
71942;DHT22;59997;53.300;-6.260;2023-11-18T14:48:48;15.26;81.38
71942;DHT22;59997;53.300;-6.260;2023-11-18T14:51:14;15.19;81.83
71942;DHT22;59997;53.300;-6.260;2023-11-18T14:53:39;15.17;81.96
71942;DHT22;59997;53.300;-6.260;2023-11-18T14:56:05;15.08;81.99
71942;DHT22;59997;53.300;-6.260;2023-11-18T14:58:32;15.07;82.83
71942;DHT22;59997;53.300;-6.260;2023-11-18T15:01:03;14.99;83.22
71942;DHT22;59997;53.300;-6.260;2023-11-18T15:03:32;14.76;82.93
71942;DHT22;59997;53.300;-6.260;2023-11-18T15:05:58;14.61;84.23
71942;DHT22;59997;53.300;-6.260;2023-11-18T15:08:23;14.55;84.11
71942;DHT22;59997;53.300;-6.260;2023-11-18T15:10:49;14.45;84.46
71942;DHT22;59997;53.300;-6.260;2023-11-18T15:13:16;14.31;84.98
71942;DHT22;59997;53.300;-6.260;2023-11-18T15:15:42;14.24;85.46
71942;DHT22;59997;53.300;-6.260;2023-11-18T15:18:08;14.12;85.33
71942;DHT22;59997;53.300;-6.260;2023-11-18T15:20:36;14.09;85.85
71942;DHT22;59997;53.300;-6.260;2023-11-18T15:23:02;14.06;85.65
71942;DHT22;59997;53.300;-6.260;2023-11-18T15:25:28;14.03;85.27
71942;DHT22;59997;53.300;-6.260;2023-11-18T15:27:55;14.05;85.89
71942;DHT22;59997;53.300;-6.260;2023-11-18T15:30:22;13.98;85.93
71942;DHT22;59997;53.300;-6.260;2023-11-18T15:32:50;13.95;86.03
71942;DHT22;59997;53.300;-6.260;2023-11-18T15:35:17;13.87;85.95
71942;DHT22;59997;53.300;-6.260;2023-11-18T15:37:44;13.79;85.92
71942;DHT22;59997;53.300;-6.260;2023-11-18T15:40:15;13.78;86.00
71942;DHT22;59997;53.300;-6.260;2023-11-18T15:42:47;13.69;86.38
71942;DHT22;59997;53.300;-6.260;2023-11-18T15:45:22;13.65;86.45
71942;DHT22;59997;53.300;-6.260;2023-11-18T15:47:54;13.65;86.40
71942;DHT22;59997;53.300;-6.260;2023-11-18T15:50:20;13.64;86.41
71942;DHT22;59997;53.300;-6.260;2023-11-18T15:52:50;13.69;86.55
71942;DHT22;59997;53.300;-6.260;2023-11-18T15:55:17;13.65;86.63